Time;durP1;ratioP1;P1;durP2;ratioP2;P2;SDS_P1;SDS_P2;PMS_P1;PMS_P2;Temp;Humidity;BMP_temperature;BMP_pressure;BME280_temperature;BME280_humidity;BME280_pressure;Samples;Min_cycle;Max_cycle;Signal;HPM_P1;HPM_P2
2022/04/08 00:01:03;;;;;;;1.33;0.70;;;12.80;99.90;;;;;;4993024;28;20474;-77
2022/04/08 00:03:29;;;;;;;3.42;1.30;;;12.80;99.90;;;;;;4993261;28;20385;-77
2022/04/08 00:05:57;;;;;;;5.78;1.33;;;12.80;99.90;;;;;;4993503;28;20542;-78
2022/04/08 00:08:23;;;;;;;3.25;0.80;;;12.80;99.90;;;;;;4996310;28;20371;-78
2022/04/08 00:10:48;;;;;;;4.45;1.10;;;12.80;99.90;;;;;;4973082;28;20045;-77
2022/04/08 00:13:15;;;;;;;2.83;0.93;;;12.80;99.90;;;;;;4977227;28;20105;-77
2022/04/08 00:15:41;;;;;;;2.05;0.80;;;12.80;99.90;;;;;;4977178;28;20031;-78
2022/04/08 00:18:07;;;;;;;3.08;1.10;;;12.80;99.90;;;;;;4976968;28;20101;-77
2022/04/08 00:20:36;;;;;;;6.75;1.13;;;12.80;99.90;;;;;;4976573;28;20027;-77
2022/04/08 00:23:04;;;;;;;2.60;1.00;;;12.70;99.90;;;;;;4976720;28;20494;-77
2022/04/08 00:25:30;;;;;;;5.13;0.90;;;12.80;99.90;;;;;;4976430;28;20380;-77
2022/04/08 00:27:55;;;;;;;2.17;1.00;;;12.80;99.90;;;;;;4976730;28;20033;-77
2022/04/08 00:30:21;;;;;;;7.40;1.38;;;12.80;99.90;;;;;;4976638;28;20394;-77
2022/04/08 00:32:47;;;;;;;3.58;1.02;;;12.80;99.90;;;;;;4981930;28;20497;-77
2022/04/08 00:35:13;;;;;;;3.97;1.10;;;12.90;99.90;;;;;;4995816;28;20531;-77
2022/04/08 00:37:40;;;;;;;5.35;1.73;;;12.90;99.90;;;;;;4995954;28;20023;-77
2022/04/08 00:40:07;;;;;;;4.72;1.10;;;12.80;99.90;;;;;;4995926;28;20043;-78
2022/04/08 00:42:33;;;;;;;3.50;0.95;;;12.80;99.90;;;;;;4991273;28;20026;-77
2022/04/08 00:44:59;;;;;;;4.55;1.20;;;12.80;99.90;;;;;;4976702;28;20101;-78
2022/04/08 00:47:24;;;;;;;7.55;1.17;;;12.90;99.90;;;;;;4976267;28;20170;-78
2022/04/08 00:49:53;;;;;;;4.43;1.48;;;12.70;99.90;;;;;;4976278;28;20164;-77
2022/04/08 00:52:19;;;;;;;3.67;1.05;;;12.70;99.90;;;;;;4976312;28;20106;-77
2022/04/08 00:54:47;;;;;;;5.45;1.40;;;12.70;99.90;;;;;;4976176;28;20035;-77
2022/04/08 00:57:13;;;;;;;5.32;1.10;;;12.70;99.90;;;;;;4979667;28;20028;-77
2022/04/08 00:59:39;;;;;;;5.07;1.05;;;12.60;99.90;;;;;;4995374;28;20037;-77
2022/04/08 01:02:05;;;;;;;3.20;1.20;;;12.60;99.90;;;;;;4995764;28;20097;-77
2022/04/08 01:04:31;;;;;;;4.65;1.15;;;12.60;99.90;;;;;;4977706;28;20105;-78
2022/04/08 01:06:56;;;;;;;4.93;1.30;;;12.50;99.90;;;;;;4995329;28;20022;-77
2022/04/08 01:09:23;;;;;;;4.90;1.10;;;12.50;99.90;;;;;;4995369;28;20030;-77
2022/04/08 01:11:48;;;;;;;3.92;1.05;;;12.50;99.90;;;;;;4995340;28;20105;-77
2022/04/08 01:14:16;;;;;;;7.53;1.40;;;12.50;99.90;;;;;;4995536;28;20105;-77
2022/04/08 01:16:42;;;;;;;4.93;1.13;;;12.50;99.90;;;;;;4991179;28;20023;-77
2022/04/08 01:19:08;;;;;;;6.53;1.30;;;12.50;99.90;;;;;;4975578;28;20118;-77
2022/04/08 01:21:34;;;;;;;8.50;1.38;;;12.50;99.90;;;;;;4976901;28;20027;-77
2022/04/08 01:24:01;;;;;;;6.25;1.25;;;12.50;99.90;;;;;;4997805;28;20045;-77
2022/04/08 01:26:27;;;;;;;4.10;1.30;;;12.60;99.90;;;;;;5014636;28;20010;-77
2022/04/08 01:28:54;;;;;;;8.48;1.90;;;12.60;99.90;;;;;;5012686;28;20029;-77
2022/04/08 01:31:21;;;;;;;5.97;1.42;;;12.60;99.90;;;;;;4994840;28;20029;-77
2022/04/08 01:33:46;;;;;;;7.57;1.20;;;12.60;99.90;;;;;;4962521;28;20026;-77
2022/04/08 01:36:12;;;;;;;4.60;1.30;;;12.60;99.90;;;;;;4975654;28;20034;-77
2022/04/08 01:38:38;;;;;;;6.25;1.30;;;12.60;99.90;;;;;;4957862;28;20027;-77
2022/04/08 01:41:03;;;;;;;8.73;1.88;;;12.60;99.90;;;;;;4975260;28;20036;-77
2022/04/08 01:43:29;;;;;;;6.35;1.88;;;12.60;99.90;;;;;;4975326;28;20029;-77
2022/04/08 01:45:54;;;;;;;6.25;1.55;;;12.50;99.90;;;;;;4974969;28;20494;-77
2022/04/08 01:48:20;;;;;;;4.53;1.48;;;12.60;99.90;;;;;;4974823;28;20035;-77
2022/04/08 01:50:46;;;;;;;7.43;1.90;;;12.50;99.90;;;;;;4975282;28;20037;-77
2022/04/08 01:53:13;;;;;;;7.55;1.75;;;12.60;99.90;;;;;;4975752;28;20034;-77
2022/04/08 01:55:39;;;;;;;7.45;1.70;;;12.50;99.90;;;;;;4975140;28;20113;-77
2022/04/08 01:58:06;;;;;;;3.60;1.40;;;12.50;99.90;;;;;;4957494;28;20364;-77
2022/04/08 02:00:32;;;;;;;2.40;1.20;;;12.40;99.90;;;;;;4974875;28;20529;-77
2022/04/08 02:02:58;;;;;;;4.72;1.42;;;12.40;99.90;;;;;;4986328;28;20026;-77
2022/04/08 02:05:24;;;;;;;3.58;1.40;;;12.40;99.90;;;;;;4994506;28;20022;-77
2022/04/08 02:07:50;;;;;;;3.75;1.42;;;12.40;99.90;;;;;;4983227;28;20662;-77
2022/04/08 02:10:15;;;;;;;6.63;1.63;;;12.30;99.90;;;;;;4975019;28;20486;-77
2022/04/08 02:12:41;;;;;;;6.57;1.40;;;12.30;99.90;;;;;;4974726;28;20039;-77
2022/04/08 02:15:07;;;;;;;3.13;1.40;;;12.30;99.90;;;;;;4974630;28;20467;-77
2022/04/08 02:17:33;;;;;;;3.95;1.55;;;12.30;99.90;;;;;;4974792;28;20030;-77
2022/04/08 02:19:59;;;;;;;6.30;1.30;;;12.30;99.90;;;;;;4985812;28;20038;-77
2022/04/08 02:22:25;;;;;;;4.60;1.70;;;12.30;99.90;;;;;;4994018;28;20536;-77
2022/04/08 02:24:51;;;;;;;5.93;1.40;;;12.40;99.90;;;;;;4993712;28;20418;-77
2022/04/08 02:27:18;;;;;;;3.58;1.45;;;12.30;99.90;;;;;;4985702;28;20031;-77
2022/04/08 02:29:44;;;;;;;6.40;1.27;;;12.40;99.90;;;;;;4973433;28;20026;-77
2022/04/08 02:32:10;;;;;;;6.88;1.30;;;12.40;99.90;;;;;;4974715;28;20165;-78
2022/04/08 02:34:38;;;;;;;7.10;1.40;;;12.30;99.90;;;;;;4992537;28;20146;-77
2022/04/08 02:37:05;;;;;;;6.45;1.50;;;12.40;99.90;;;;;;4993809;28;20031;-77
2022/04/08 02:39:31;;;;;;;11.65;1.90;;;12.30;99.90;;;;;;4993853;28;20029;-77
2022/04/08 02:41:57;;;;;;;5.75;1.70;;;12.30;99.90;;;;;;4999514;28;20500;-77
2022/04/08 02:44:23;;;;;;;9.40;1.63;;;12.30;99.90;;;;;;4999068;28;20018;-77
2022/04/08 02:46:49;;;;;;;4.00;1.50;;;12.30;99.90;;;;;;4983414;28;20029;-77
2022/04/08 02:49:14;;;;;;;10.52;1.63;;;12.30;99.90;;;;;;4983267;28;20033;-77
2022/04/08 02:51:40;;;;;;;2.75;1.42;;;12.20;99.90;;;;;;4974274;28;20038;-78
2022/04/08 02:54:06;;;;;;;4.20;1.40;;;12.20;99.90;;;;;;4974293;28;20026;-77
2022/04/08 02:56:32;;;;;;;11.18;1.63;;;12.20;99.90;;;;;;4974014;28;20042;-77
2022/04/08 02:59:00;;;;;;;5.30;1.83;;;12.30;99.90;;;;;;4973901;28;20106;-77
2022/04/08 03:01:26;;;;;;;4.38;1.60;;;12.20;99.90;;;;;;4984746;28;20426;-77
2022/04/08 03:03:52;;;;;;;5.45;2.28;;;12.20;99.90;;;;;;5012889;28;20022;-77
2022/04/08 03:06:19;;;;;;;5.95;1.23;;;12.20;99.90;;;;;;5012450;28;20088;-77
2022/04/08 03:08:44;;;;;;;5.60;1.48;;;12.20;99.90;;;;;;4989349;28;20030;-77
2022/04/08 03:11:10;;;;;;;3.00;1.45;;;12.10;99.90;;;;;;4993232;28;20097;-77
2022/04/08 03:13:36;;;;;;;7.00;1.58;;;12.20;99.90;;;;;;4993622;28;20394;-78
2022/04/08 03:16:02;;;;;;;6.53;1.40;;;12.10;99.90;;;;;;4993421;28;20030;-77
2022/04/08 03:18:28;;;;;;;5.28;1.67;;;12.10;99.90;;;;;;4988996;28;20482;-77
2022/04/08 03:20:54;;;;;;;7.65;1.67;;;12.10;99.90;;;;;;4973901;28;20066;-77
2022/04/08 03:23:20;;;;;;;7.72;1.65;;;12.20;99.90;;;;;;4973594;28;20034;-77
2022/04/08 03:25:46;;;;;;;3.92;1.65;;;12.10;99.90;;;;;;4973688;28;20106;-77
2022/04/08 03:28:12;;;;;;;6.15;2.25;;;12.00;99.90;;;;;;4993033;28;20502;-77
2022/04/08 03:30:37;;;;;;;8.32;2.08;;;12.00;99.90;;;;;;4993626;28;20117;-77
2022/04/08 03:33:04;;;;;;;5.03;1.50;;;12.00;99.90;;;;;;4992800;28;20474;-77
2022/04/08 03:35:30;;;;;;;2.75;1.33;;;12.00;99.90;;;;;;4992779;28;20397;-77
2022/04/08 03:37:55;;;;;;;5.07;1.63;;;12.00;99.90;;;;;;4993088;28;20022;-78
2022/04/08 03:40:21;;;;;;;7.72;1.42;;;12.00;99.90;;;;;;4994352;28;20413;-78
2022/04/08 03:42:47;;;;;;;6.65;1.38;;;12.10;99.90;;;;;;4989462;28;20026;-77
2022/04/08 03:45:13;;;;;;;6.75;1.75;;;12.20;99.90;;;;;;4996963;28;20030;-77
2022/04/08 03:47:39;;;;;;;5.13;1.50;;;12.20;99.90;;;;;;4996770;28;20050;-77
2022/04/08 03:50:06;;;;;;;6.40;1.92;;;12.20;99.90;;;;;;4996812;28;20561;-77
2022/04/08 03:52:32;;;;;;;9.25;1.52;;;12.30;99.90;;;;;;4979413;28;20077;-77
2022/04/08 03:55:03;;;;;;;6.00;1.88;;;12.30;99.90;;;;;;4979191;28;20030;-77
2022/04/08 03:57:29;;;;;;;2.85;1.20;;;12.40;99.90;;;;;;4996542;28;20033;-77
2022/04/08 03:59:55;;;;;;;5.50;1.52;;;12.30;99.90;;;;;;4985148;28;20031;-78
2022/04/08 04:02:21;;;;;;;5.65;1.45;;;12.30;99.90;;;;;;4977010;28;20015;-77
2022/04/08 04:04:47;;;;;;;4.97;1.55;;;12.40;99.90;;;;;;4977504;28;20031;-77
2022/04/08 04:07:12;;;;;;;3.95;1.52;;;12.40;99.90;;;;;;4980266;28;20433;-77
2022/04/08 04:09:38;;;;;;;4.43;1.25;;;12.40;99.90;;;;;;4996604;28;20041;-77
2022/04/08 04:12:04;;;;;;;4.55;1.30;;;12.40;99.90;;;;;;4996888;28;20080;-77
2022/04/08 04:14:30;;;;;;;4.45;1.42;;;12.40;99.90;;;;;;4996321;28;20534;-79
2022/04/08 04:16:55;;;;;;;7.13;2.05;;;12.40;99.90;;;;;;5007754;28;20022;-81
2022/04/08 04:19:21;;;;;;;5.78;1.63;;;12.40;99.90;;;;;;5015661;28;20037;-83
2022/04/08 04:21:47;;;;;;;10.05;1.48;;;12.40;99.90;;;;;;4998037;28;20024;-83
2022/04/08 04:24:14;;;;;;;6.22;1.27;;;12.40;99.90;;;;;;4997757;28;20050;-83
2022/04/08 04:26:40;;;;;;;4.70;1.40;;;12.40;99.90;;;;;;5015416;28;20056;-79
2022/04/08 04:29:05;;;;;;;7.60;1.27;;;12.40;99.90;;;;;;5015741;28;20068;-79
2022/04/08 04:31:31;;;;;;;3.42;1.30;;;12.40;99.90;;;;;;5003909;28;20576;-79
2022/04/08 04:33:57;;;;;;;5.95;1.90;;;12.40;99.90;;;;;;4996193;28;20042;-79
2022/04/08 04:36:22;;;;;;;6.95;1.55;;;12.40;99.90;;;;;;4996007;28;20076;-79
2022/04/08 04:38:48;;;;;;;7.78;1.30;;;12.40;99.90;;;;;;4995976;28;20030;-84
2022/04/08 04:41:15;;;;;;;3.92;1.48;;;12.40;99.90;;;;;;5006834;28;20050;-79
2022/04/08 04:43:40;;;;;;;5.38;1.60;;;12.50;99.90;;;;;;4985946;28;20054;-82
2022/04/08 04:46:06;;;;;;;4.70;1.27;;;12.40;99.90;;;;;;4987124;28;20050;-79
2022/04/08 04:48:32;;;;;;;3.40;1.13;;;12.40;99.90;;;;;;5006586;28;20100;-80
2022/04/08 04:50:57;;;;;;;3.97;1.40;;;12.40;99.90;;;;;;5005738;28;20033;-79
2022/04/08 04:53:24;;;;;;;6.32;1.30;;;12.40;99.90;;;;;;5002842;28;20026;-80
2022/04/08 04:55:50;;;;;;;7.40;1.27;;;12.50;99.90;;;;;;5002765;28;20081;-75
2022/04/08 04:58:16;;;;;;;7.47;1.50;;;12.40;99.90;;;;;;5005622;28;20085;-79
2022/04/08 05:00:42;;;;;;;8.45;1.60;;;12.40;99.90;;;;;;5006773;28;20014;-79
2022/04/08 05:03:08;;;;;;;5.95;1.98;;;12.50;99.90;;;;;;5004775;28;20026;-80
2022/04/08 05:05:35;;;;;;;2.53;1.02;;;12.50;99.90;;;;;;5002930;28;20011;-79
2022/04/08 05:08:04;;;;;;;4.95;1.65;;;12.50;99.90;;;;;;5013203;28;20084;-79
2022/04/08 05:10:31;;;;;;;9.30;1.80;;;12.40;99.90;;;;;;5005582;28;20105;-78
2022/04/08 05:12:59;;;;;;;5.03;1.40;;;12.40;99.90;;;;;;5006326;28;20026;-78
2022/04/08 05:15:26;;;;;;;4.88;1.50;;;12.30;99.90;;;;;;4999347;28;20025;-79
2022/04/08 05:17:51;;;;;;;4.63;1.20;;;12.40;99.90;;;;;;5004724;28;20549;-78
2022/04/08 10:24:41;;;;;;;7.05;1.45;;;20.50;92.60;;;;;;5967052;23;20018;-82
2022/04/08 10:27:09;;;;;;;5.47;1.42;;;20.00;92.40;;;;;;4991833;28;20109;-83
2022/04/08 10:29:36;;;;;;;6.72;1.25;;;20.30;93.10;;;;;;4974949;28;20481;-79
2022/04/08 10:32:11;;;;;;;5.80;1.60;;;20.90;92.30;;;;;;4993692;28;20018;-78
2022/04/08 10:34:37;;;;;;;7.13;1.40;;;20.90;91.20;;;;;;4989363;28;20501;-78
2022/04/08 10:37:22;;;;;;;5.40;1.20;;;21.20;91.90;;;;;;4965287;28;20034;-77
2022/04/08 10:39:58;;;;;;;6.93;1.40;;;21.30;91.20;;;;;;4974093;28;20055;-78
2022/04/08 10:42:24;;;;;;;6.28;1.13;;;21.60;89.70;;;;;;4974355;28;20027;-78
2022/04/08 10:44:50;;;;;;;4.38;1.17;;;21.10;87.90;;;;;;4957343;28;20027;-78
2022/04/08 10:47:24;;;;;;;7.20;1.25;;;21.10;88.00;;;;;;4973931;28;20027;-78
2022/04/08 10:49:50;;;;;;;5.03;1.55;;;21.50;90.00;;;;;;4973765;28;20541;-78
2022/04/08 10:52:26;;;;;;;2.90;1.20;;;21.10;89.10;;;;;;4956791;28;20030;-78
2022/04/08 10:55:06;;;;;;;4.57;1.23;;;21.00;89.10;;;;;;4974026;28;20061;-78
2022/04/08 10:57:43;;;;;;;3.97;1.35;;;21.60;88.90;;;;;;4973831;28;20035;-78
2022/04/08 11:00:18;;;;;;;8.32;1.33;;;21.70;86.90;;;;;;4988543;28;20031;-78
2022/04/08 11:02:46;;;;;;;6.70;1.60;;;21.70;87.20;;;;;;4975251;28;20137;-78
2022/04/08 11:05:13;;;;;;;4.28;1.52;;;21.20;88.00;;;;;;4993494;28;20026;-79
2022/04/08 11:07:47;;;;;;;4.65;1.35;;;20.10;90.80;;;;;;4993260;28;20031;-78
2022/04/08 11:10:15;;;;;;;7.18;1.10;;;20.30;90.50;;;;;;4973769;28;20033;-78
2022/04/08 11:12:51;;;;;;;3.65;1.13;;;20.60;91.70;;;;;;4978793;28;20030;-79
2022/04/08 11:15:25;;;;;;;5.68;1.50;;;20.90;88.80;;;;;;4993388;28;20031;-78
2022/04/08 11:17:52;;;;;;;5.65;1.20;;;21.10;89.50;;;;;;4993209;28;20030;-79
2022/04/08 11:20:20;;;;;;;4.32;1.55;;;22.00;86.90;;;;;;4993057;28;20378;-78
2022/04/08 16:24:40;;;;;;;3.67;0.77;;;19.30;67.60;;;;;;5118202;23;20050;-82
2022/04/08 16:27:06;;;;;;;3.80;1.05;;;19.20;67.60;;;;;;4996124;28;20023;-82
2022/04/08 16:29:33;;;;;;;2.70;0.52;;;19.20;68.20;;;;;;4993923;28;20019;-82
2022/04/08 16:31:59;;;;;;;5.30;0.70;;;19.20;68.00;;;;;;4995913;28;20073;-82
2022/04/08 16:34:25;;;;;;;1.80;0.65;;;19.10;68.70;;;;;;4994310;28;20030;-84
2022/04/08 16:36:50;;;;;;;3.28;1.42;;;19.00;68.70;;;;;;4996031;28;20026;-84
2022/04/08 16:39:17;;;;;;;2.47;0.63;;;18.90;68.50;;;;;;4986283;28;20026;-84
2022/04/08 16:41:44;;;;;;;4.28;0.80;;;18.80;69.60;;;;;;4976481;28;20027;-84
2022/04/08 16:44:10;;;;;;;6.00;0.88;;;18.80;70.00;;;;;;4981895;28;20086;-85
2022/04/08 16:46:35;;;;;;;5.45;1.13;;;18.80;70.50;;;;;;4976195;28;20066;-84
2022/04/08 16:49:01;;;;;;;2.47;1.00;;;18.70;70.90;;;;;;4992933;28;20034;-84
2022/04/08 16:51:27;;;;;;;2.38;0.70;;;18.60;71.90;;;;;;4994590;28;20520;-84
2022/04/08 16:53:53;;;;;;;4.22;1.20;;;18.60;71.80;;;;;;4994354;28;20116;-84
2022/04/08 16:56:21;;;;;;;4.30;0.60;;;18.50;72.20;;;;;;4995346;28;20052;-84
2022/04/08 16:58:47;;;;;;;2.55;0.85;;;18.50;72.70;;;;;;4995287;28;20072;-84
2022/04/08 17:01:12;;;;;;;4.15;1.15;;;18.40;72.70;;;;;;4994822;28;20093;-84
2022/04/08 17:03:39;;;;;;;6.82;1.35;;;18.30;73.00;;;;;;4994836;28;20074;-84
2022/04/08 17:06:04;;;;;;;3.22;0.68;;;18.20;72.60;;;;;;4994309;28;20025;-84
2022/04/08 17:08:33;;;;;;;3.55;0.82;;;18.20;72.50;;;;;;4994141;28;20031;-84
2022/04/08 17:10:59;;;;;;;2.30;0.80;;;18.10;72.40;;;;;;4993881;28;20113;-84
2022/04/08 17:13:25;;;;;;;10.90;1.40;;;17.90;73.20;;;;;;4997737;28;20105;-85
2022/04/08 17:15:50;;;;;;;5.25;1.23;;;17.80;74.40;;;;;;4996536;28;20022;-85
2022/04/08 17:18:16;;;;;;;5.75;1.58;;;17.60;75.50;;;;;;4994185;28;20116;-84
2022/04/08 17:20:42;;;;;;;5.13;1.25;;;17.60;77.00;;;;;;4993860;28;20030;-84
2022/04/08 17:23:08;;;;;;;4.93;1.55;;;17.40;78.20;;;;;;4990583;28;20049;-85
2022/04/08 17:25:33;;;;;;;5.35;1.17;;;17.20;79.40;;;;;;4994062;28;20063;-84
2022/04/08 17:27:59;;;;;;;11.13;1.95;;;17.00;80.90;;;;;;4993226;28;20065;-84
2022/04/08 17:30:25;;;;;;;3.75;1.33;;;17.00;82.00;;;;;;4993961;28;20117;-87
2022/04/08 17:32:50;;;;;;;9.43;1.83;;;16.80;83.50;;;;;;4995423;28;20036;-83
2022/04/08 17:35:16;;;;;;;5.90;1.63;;;16.70;85.60;;;;;;4993819;28;20018;-90
2022/04/08 17:37:42;;;;;;;6.75;0.93;;;16.50;86.90;;;;;;4991836;28;20057;-80
2022/04/08 17:40:08;;;;;;;3.92;0.88;;;16.40;86.70;;;;;;4993929;28;20029;-80
2022/04/08 17:42:35;;;;;;;8.02;1.35;;;16.20;87.80;;;;;;4993213;28;20026;-82
2022/04/08 17:45:04;;;;;;;7.18;1.77;;;15.90;90.80;;;;;;4991904;28;20105;-80
2022/04/08 17:47:30;;;;;;;7.95;1.40;;;15.70;92.40;;;;;;4991052;28;20073;-79
2022/04/08 17:49:55;;;;;;;10.43;1.27;;;15.50;93.20;;;;;;4986582;28;20027;-80
2022/04/08 17:52:22;;;;;;;7.88;1.48;;;15.30;93.90;;;;;;4994386;28;20539;-80
2022/04/08 17:54:48;;;;;;;7.95;1.40;;;15.20;94.40;;;;;;4992128;28;20414;-80
2022/04/08 17:57:13;;;;;;;5.38;1.27;;;15.20;94.80;;;;;;4988572;28;20026;-79
2022/04/08 17:59:39;;;;;;;7.43;1.48;;;15.10;95.10;;;;;;4993003;28;20026;-79
2022/04/08 18:02:05;;;;;;;6.35;1.48;;;15.00;95.40;;;;;;4993367;28;20032;-81
2022/04/08 18:04:32;;;;;;;12.75;1.90;;;15.00;95.80;;;;;;4993537;28;20018;-80
2022/04/08 18:06:58;;;;;;;9.77;2.30;;;15.00;96.30;;;;;;4993472;28;20146;-79
2022/04/08 18:09:24;;;;;;;9.18;1.63;;;14.80;96.90;;;;;;4993881;28;20026;-82
2022/04/08 18:11:50;;;;;;;8.20;1.52;;;14.70;97.70;;;;;;4993112;28;20034;-75
2022/04/08 18:14:17;;;;;;;10.57;3.28;;;14.60;98.50;;;;;;4999254;28;20398;-82
2022/04/08 18:16:43;;;;;;;6.40;1.40;;;14.60;99.00;;;;;;4993054;28;20026;-81
2022/04/08 18:19:08;;;;;;;14.75;2.95;;;14.40;99.80;;;;;;4993690;28;20024;-79
2022/04/08 18:21:34;;;;;;;9.23;2.33;;;14.50;99.90;;;;;;4993558;28;20393;-79
2022/04/08 18:24:00;;;;;;;12.40;2.33;;;14.40;99.90;;;;;;4993058;28;20046;-79
2022/04/08 18:26:26;;;;;;;11.25;2.22;;;14.30;99.90;;;;;;4991677;28;20098;-79
2022/04/08 18:28:52;;;;;;;10.18;2.30;;;14.20;99.90;;;;;;4988199;28;20034;-79
2022/04/08 18:31:18;;;;;;;10.98;2.63;;;13.90;99.90;;;;;;4992487;28;20482;-78
2022/04/08 18:33:44;;;;;;;11.80;2.70;;;13.70;99.90;;;;;;4993607;28;20041;-79
2022/04/08 18:36:10;;;;;;;15.73;3.45;;;13.70;99.90;;;;;;4992909;28;20105;-79
2022/04/08 18:38:37;;;;;;;15.57;3.65;;;13.60;99.90;;;;;;4992902;28;20504;-79
2022/04/08 18:41:03;;;;;;;18.30;3.15;;;13.50;99.90;;;;;;4991468;28;20033;-76
2022/04/08 18:43:29;;;;;;;11.40;2.47;;;13.40;99.90;;;;;;4993718;28;20036;-79
2022/04/08 18:45:55;;;;;;;13.35;3.17;;;13.30;99.90;;;;;;4992859;28;20034;-80
2022/04/08 18:48:21;;;;;;;15.00;2.67;;;13.30;99.90;;;;;;4992736;28;20021;-79
2022/04/08 18:50:47;;;;;;;17.63;4.32;;;13.30;99.90;;;;;;4993284;28;20038;-81
2022/04/08 18:53:14;;;;;;;14.55;3.40;;;13.20;99.90;;;;;;4991187;28;20030;-80
2022/04/08 18:55:39;;;;;;;14.63;3.08;;;13.20;99.90;;;;;;4991627;28;20023;-78
2022/04/08 18:58:06;;;;;;;16.17;3.38;;;13.20;99.90;;;;;;4992481;28;20022;-79
2022/04/08 19:00:32;;;;;;;18.42;3.67;;;13.10;99.90;;;;;;4992978;28;20034;-79
2022/04/08 19:02:58;;;;;;;14.15;3.47;;;13.20;99.90;;;;;;4991358;28;20049;-79
2022/04/08 19:05:24;;;;;;;22.15;3.83;;;13.00;99.90;;;;;;4992870;28;20062;-79
2022/04/08 19:07:49;;;;;;;17.52;4.25;;;13.00;99.90;;;;;;4992493;28;20502;-79
2022/04/08 19:10:15;;;;;;;18.17;2.90;;;13.00;99.90;;;;;;4985753;28;20037;-78
2022/04/08 19:12:41;;;;;;;20.13;3.40;;;13.00;99.90;;;;;;5007047;28;20031;-78
2022/04/08 19:15:07;;;;;;;16.30;4.03;;;13.00;99.90;;;;;;4992610;28;20030;-78
2022/04/08 19:17:33;;;;;;;19.63;4.40;;;13.00;99.90;;;;;;4993195;28;20027;-79
2022/04/08 19:19:58;;;;;;;24.67;4.43;;;12.90;99.90;;;;;;4993942;28;20057;-79
2022/04/08 19:22:24;;;;;;;20.25;4.20;;;12.90;99.90;;;;;;4999607;28;20374;-79
2022/04/08 19:24:50;;;;;;;19.42;3.53;;;12.90;99.90;;;;;;4977408;28;20160;-79
2022/04/08 19:27:16;;;;;;;19.63;3.42;;;12.80;99.90;;;;;;4993419;28;20026;-79
2022/04/08 19:29:42;;;;;;;19.38;3.95;;;12.80;99.90;;;;;;5001308;28;20069;-79
2022/04/08 19:32:08;;;;;;;19.02;3.70;;;12.80;99.90;;;;;;5012785;28;20568;-79
2022/04/08 19:34:34;;;;;;;23.00;4.10;;;12.80;99.90;;;;;;4978307;28;20173;-79
2022/04/08 19:37:03;;;;;;;20.98;4.05;;;12.80;99.90;;;;;;4998631;28;20104;-79
2022/04/08 19:39:29;;;;;;;26.65;4.25;;;12.70;99.90;;;;;;4992066;28;20038;-79
2022/04/08 19:41:54;;;;;;;23.70;4.30;;;12.70;99.90;;;;;;4989203;28;20034;-79
2022/04/08 19:44:20;;;;;;;24.38;4.10;;;12.70;99.90;;;;;;4988526;28;20019;-79
2022/04/08 19:46:46;;;;;;;25.80;5.03;;;12.80;99.90;;;;;;4957538;28;20495;-79
2022/04/08 19:49:12;;;;;;;32.10;4.55;;;12.70;99.90;;;;;;4981551;28;20034;-79
2022/04/08 19:51:38;;;;;;;20.45;4.28;;;12.70;99.90;;;;;;4992078;28;20390;-80
2022/04/08 19:54:04;;;;;;;24.58;4.63;;;12.60;99.90;;;;;;5004213;28;20100;-79
2022/04/08 19:56:30;;;;;;;23.85;4.68;;;12.70;99.90;;;;;;4966452;28;20023;-79
2022/04/08 19:58:56;;;;;;;25.60;4.63;;;12.60;99.90;;;;;;4971497;28;20401;-79
2022/04/08 20:01:21;;;;;;;30.65;4.88;;;12.60;99.90;;;;;;4975346;28;20026;-79
2022/04/08 20:03:47;;;;;;;27.13;4.85;;;12.60;99.90;;;;;;4989067;28;20027;-79
2022/04/08 20:06:13;;;;;;;22.38;5.20;;;12.60;99.90;;;;;;4997596;28;20023;-79
2022/04/08 20:08:39;;;;;;;21.63;4.22;;;12.50;99.90;;;;;;4992467;28;20029;-80
2022/04/08 20:11:05;;;;;;;25.80;3.80;;;12.50;99.90;;;;;;4983610;28;20513;-79
2022/04/08 20:13:31;;;;;;;32.47;5.43;;;12.60;99.90;;;;;;4992955;28;20065;-79
2022/04/08 20:15:57;;;;;;;31.00;5.30;;;12.60;99.90;;;;;;5007121;28;20366;-79
2022/04/08 20:18:23;;;;;;;25.38;5.07;;;12.50;99.90;;;;;;5012128;28;20037;-79
2022/04/08 20:20:48;;;;;;;22.85;4.55;;;12.50;99.90;;;;;;4997269;28;20525;-79
2022/04/08 20:23:16;;;;;;;24.17;4.35;;;12.50;99.90;;;;;;4994842;28;20042;-79
2022/04/08 20:25:42;;;;;;;31.05;4.70;;;12.50;99.90;;;;;;4993345;28;20015;-79
2022/04/08 20:28:08;;;;;;;24.40;4.80;;;12.50;99.90;;;;;;4990118;28;20122;-79
2022/04/08 20:30:34;;;;;;;26.13;4.40;;;12.50;99.90;;;;;;4994801;28;20025;-79
2022/04/08 20:33:00;;;;;;;30.08;5.25;;;12.50;99.90;;;;;;4995833;28;20105;-79
2022/04/08 20:35:26;;;;;;;23.55;3.95;;;12.40;99.90;;;;;;4995573;28;20054;-79
2022/04/08 20:37:54;;;;;;;30.77;5.80;;;12.40;99.90;;;;;;4995944;28;20097;-79
2022/04/08 20:40:21;;;;;;;28.63;5.53;;;12.30;99.90;;;;;;4995764;28;20026;-80
2022/04/08 20:42:46;;;;;;;24.98;4.88;;;12.40;99.90;;;;;;4994529;28;20434;-79
2022/04/08 20:45:12;;;;;;;24.65;4.63;;;12.30;99.90;;;;;;4983049;28;20026;-79
2022/04/08 20:47:38;;;;;;;26.15;4.70;;;12.30;99.90;;;;;;4996393;28;20022;-79
2022/04/08 20:50:04;;;;;;;31.42;5.75;;;12.30;99.90;;;;;;4995534;28;20033;-79
2022/04/08 20:52:34;;;;;;;30.35;5.53;;;12.20;99.90;;;;;;5001542;28;20041;-79
2022/04/08 20:55:02;;;;;;;22.67;4.38;;;12.20;99.90;;;;;;4994634;28;20027;-79
2022/04/08 20:57:27;;;;;;;24.63;5.05;;;12.20;99.90;;;;;;4995645;28;20073;-79
2022/04/08 20:59:53;;;;;;;36.88;5.80;;;12.20;99.90;;;;;;4995708;28;20430;-79
2022/04/08 21:02:18;;;;;;;28.90;5.40;;;12.10;99.90;;;;;;4995395;28;20508;-79
2022/04/08 21:04:44;;;;;;;26.70;4.90;;;12.10;99.90;;;;;;4995479;28;20382;-79
2022/04/08 21:07:10;;;;;;;30.52;5.22;;;12.20;99.90;;;;;;4995104;28;20671;-79
2022/04/08 21:09:35;;;;;;;22.83;4.93;;;12.20;99.90;;;;;;4995410;28;20026;-79
2022/04/08 21:12:01;;;;;;;21.85;4.25;;;12.10;99.90;;;;;;4995547;28;20042;-79
2022/04/08 21:14:27;;;;;;;21.80;4.47;;;12.10;99.90;;;;;;4994414;28;20018;-79
2022/04/08 21:16:53;;;;;;;21.35;3.97;;;12.10;99.90;;;;;;4995253;28;20114;-79
2022/04/08 21:19:19;;;;;;;20.92;3.95;;;12.00;99.90;;;;;;4995188;28;20030;-79
2022/04/08 21:21:44;;;;;;;20.20;3.92;;;12.00;99.90;;;;;;4994079;28;20030;-79
2022/04/08 21:24:10;;;;;;;22.35;4.70;;;12.00;99.90;;;;;;4994928;28;20038;-79
2022/04/08 21:26:36;;;;;;;29.23;4.78;;;12.00;99.90;;;;;;4993169;28;20031;-80
2022/04/08 21:29:01;;;;;;;18.75;3.05;;;11.90;99.90;;;;;;4994507;28;20030;-79
2022/04/08 21:31:27;;;;;;;27.73;4.60;;;11.90;99.90;;;;;;4993977;28;20065;-79
2022/04/08 21:33:53;;;;;;;19.65;3.92;;;11.90;99.90;;;;;;4994688;28;20593;-79
2022/04/08 21:36:20;;;;;;;20.08;3.90;;;11.90;99.90;;;;;;4990340;28;20034;-79
2022/04/08 21:38:46;;;;;;;21.73;3.65;;;11.90;99.90;;;;;;4975241;28;20027;-79
2022/04/08 21:41:13;;;;;;;19.23;3.67;;;11.80;99.90;;;;;;4982819;28;20027;-79
2022/04/08 21:43:39;;;;;;;19.80;3.67;;;11.80;99.90;;;;;;4994352;28;20042;-79
2022/04/08 21:46:05;;;;;;;20.35;4.13;;;11.80;99.90;;;;;;4994165;28;20069;-79
2022/04/08 21:48:31;;;;;;;26.13;4.63;;;11.80;99.90;;;;;;4994666;28;20069;-80
2022/04/08 21:50:56;;;;;;;24.20;3.67;;;11.70;99.90;;;;;;4992694;28;20522;-79
2022/04/08 21:53:22;;;;;;;22.58;4.07;;;11.80;99.90;;;;;;4982507;28;20042;-79
2022/04/08 21:55:50;;;;;;;17.58;3.60;;;11.80;99.90;;;;;;4992363;28;20042;-79
2022/04/08 21:58:20;;;;;;;23.55;3.72;;;11.80;99.90;;;;;;4994666;28;20509;-79
2022/04/08 22:00:50;;;;;;;15.93;3.80;;;11.80;99.90;;;;;;4994027;28;20026;-79
2022/04/08 22:03:18;;;;;;;23.85;3.00;;;11.70;99.90;;;;;;4994527;28;20033;-79
2022/04/08 22:05:45;;;;;;;22.08;4.60;;;11.70;99.90;;;;;;4993852;28;20034;-79
2022/04/08 22:08:11;;;;;;;17.92;3.22;;;11.70;99.90;;;;;;4994480;28;20022;-79
2022/04/08 22:10:38;;;;;;;18.85;3.17;;;11.70;99.90;;;;;;4994102;28;20030;-79
2022/04/08 22:13:06;;;;;;;19.50;2.90;;;11.60;99.90;;;;;;4994588;28;20037;-79
2022/04/08 22:15:34;;;;;;;20.08;3.40;;;11.60;99.90;;;;;;4993875;28;20103;-79
2022/04/08 22:18:03;;;;;;;16.35;2.72;;;11.60;99.90;;;;;;4992898;28;20026;-79
2022/04/08 22:20:33;;;;;;;19.20;2.80;;;11.50;99.90;;;;;;4993875;28;20032;-79
2022/04/08 22:23:00;;;;;;;16.15;2.53;;;11.50;99.90;;;;;;4992809;28;20046;-79
2022/04/08 22:25:26;;;;;;;18.38;3.03;;;11.50;99.90;;;;;;4992632;28;20030;-80
2022/04/08 22:27:52;;;;;;;15.25;2.53;;;11.50;99.90;;;;;;4999931;28;20032;-79
2022/04/08 22:30:18;;;;;;;18.27;2.90;;;11.40;99.90;;;;;;5001771;28;20041;-79
2022/04/08 22:32:43;;;;;;;21.58;2.78;;;11.40;99.90;;;;;;4993111;28;20030;-79
2022/04/08 22:35:10;;;;;;;17.75;3.42;;;11.30;99.90;;;;;;4993024;28;20113;-79
2022/04/08 22:37:36;;;;;;;16.23;3.05;;;11.30;99.90;;;;;;4992343;28;20061;-79
2022/04/08 22:40:04;;;;;;;17.77;3.42;;;11.30;99.90;;;;;;4992258;28;20026;-78
2022/04/08 22:42:30;;;;;;;21.48;2.83;;;11.20;99.90;;;;;;4987178;28;20023;-79
2022/04/08 22:44:58;;;;;;;22.80;3.42;;;11.20;99.90;;;;;;4973989;28;20027;-79